FMEE Airport Information

Runway Information
Runway 12 Length 10499 ft width 148 ft
Elevation 38 ft Threshold 398 ft Heading 102
Runway 30 Length 10499 ft Width 148 ft
Elevation 31 ft Threshold 0 ft Heading 282
Runway 14 Length 8760 ft width 148 ft
Elevation 27 ft Threshold 328 ft Heading 116
Runway 32 Length 8760 ft Width 148 ft
Elevation 65 ft Threshold 1165 ft Heading 296
Airport Frequencies
Type A/G Name GILLOT RDO Frequency 347.6 MHZ
Type APP Name GILLOT APP Frequency 119.4 MHZ
Type ATIS Name ATIS Frequency 126.8 MHZ
Type GND Name GILLOT GND Frequency 121.9 MHZ
Type TWR Name GILLOT TWR Frequency 118.4 MHZ
Airport Navaids
Type NDB Name St Denis Gillot Frequency 382 KHZ
Type VOR-DME Name St Denis Gillot Frequency 112900 KHZ
Airport Weather Information & NOTAM
ADDS - METARS form results

(0449 UTC 27 April 2018)
 
METAR text: FMEE 270430Z 13005KT 080V170 9999 FEW026 25/18 Q1016 NOSIG
Conditions at: FMEE (ST. DENIS/GILLOT, FR) observed 0430 UTC 27 April 2018
Temperature: 25.0°C (77°F)
Dewpoint: 18.0°C (64°F) [RH = 65%]
Pressure (altimeter): 30.00 inches Hg (1016.0 mb)
Winds: from the SE (130 degrees) at 6 MPH (5 knots; 2.6 m/s)
Visibility: 6 or more miles (10+ km)
Ceiling: at least 12,000 feet AGL
Clouds: few clouds at 2600 feet AGL
Weather: no significant weather observed at this time

METAR text: FMEE 270400Z 17006KT 9999 FEW026 24/19 Q1016 NOSIG
Conditions at: FMEE (ST. DENIS/GILLOT, FR) observed 0400 UTC 27 April 2018
Temperature: 24.0°C (75°F)
Dewpoint: 19.0°C (66°F) [RH = 74%]
Pressure (altimeter): 30.00 inches Hg (1016.0 mb)
Winds: from the S (170 degrees) at 7 MPH (6 knots; 3.1 m/s)
Visibility: 6 or more miles (10+ km)
Ceiling: at least 12,000 feet AGL
Clouds: few clouds at 2600 feet AGL
Weather: no significant weather observed at this time